sensor_id;sensor_type;location;lat;lon;timestamp;pressure;altitude;pressure_sealevel;temperature;humidity
22333;BME280;11334;36.986;-121.936;2023-03-04T00:01:45;101095.56;;;17.00;57.37
22333;BME280;11334;36.986;-121.936;2023-03-04T00:04:11;101089.56;;;16.98;57.27
22333;BME280;11334;36.986;-121.936;2023-03-04T00:06:38;101083.28;;;16.91;57.96
22333;BME280;11334;36.986;-121.936;2023-03-04T00:09:04;101086.34;;;16.88;58.88
22333;BME280;11334;36.986;-121.936;2023-03-04T00:11:31;101085.88;;;16.85;59.90
22333;BME280;11334;36.986;-121.936;2023-03-04T00:13:57;101082.84;;;16.88;60.35
22333;BME280;11334;36.986;-121.936;2023-03-04T00:16:24;101096.84;;;16.90;60.82
22333;BME280;11334;36.986;-121.936;2023-03-04T00:18:54;101093.63;;;16.94;60.68
22333;BME280;11334;36.986;-121.936;2023-03-04T00:21:21;101095.34;;;17.02;60.94
22333;BME280;11334;36.986;-121.936;2023-03-04T00:23:47;101093.72;;;17.01;60.97
22333;BME280;11334;36.986;-121.936;2023-03-04T00:26:14;101095.44;;;17.22;60.77
22333;BME280;11334;36.986;-121.936;2023-03-04T00:28:41;101089.81;;;17.38;60.02
22333;BME280;11334;36.986;-121.936;2023-03-04T00:31:08;101073.72;;;17.38;59.63
22333;BME280;11334;36.986;-121.936;2023-03-04T00:33:34;101078.00;;;17.53;59.28
22333;BME280;11334;36.986;-121.936;2023-03-04T00:36:00;101075.31;;;17.53;59.23
22333;BME280;11334;36.986;-121.936;2023-03-04T00:38:27;101078.00;;;17.53;59.25
22333;BME280;11334;36.986;-121.936;2023-03-04T00:40:53;101082.66;;;17.45;59.36
22333;BME280;11334;36.986;-121.936;2023-03-04T00:43:20;101077.09;;;17.46;59.33
22333;BME280;11334;36.986;-121.936;2023-03-04T00:45:46;101080.41;;;17.48;59.82
22333;BME280;11334;36.986;-121.936;2023-03-04T00:48:12;101076.75;;;17.49;60.03
22333;BME280;11334;36.986;-121.936;2023-03-04T00:50:39;101067.41;;;17.45;59.37
22333;BME280;11334;36.986;-121.936;2023-03-04T00:53:05;101064.09;;;17.43;59.37
22333;BME280;11334;36.986;-121.936;2023-03-04T00:55:32;101061.38;;;17.37;59.67
22333;BME280;11334;36.986;-121.936;2023-03-04T00:57:58;101066.56;;;17.24;59.57
22333;BME280;11334;36.986;-121.936;2023-03-04T01:00:24;101065.72;;;17.17;60.26
22333;BME280;11334;36.986;-121.936;2023-03-04T01:02:50;101040.72;;;16.96;60.20
22333;BME280;11334;36.986;-121.936;2023-03-04T01:05:17;101049.66;;;17.03;60.48
22333;BME280;11334;36.986;-121.936;2023-03-04T01:07:43;101060.03;;;16.92;60.45
22333;BME280;11334;36.986;-121.936;2023-03-04T01:10:12;101071.38;;;16.94;60.55
22333;BME280;11334;36.986;-121.936;2023-03-04T01:12:39;101081.56;;;16.84;61.35
22333;BME280;11334;36.986;-121.936;2023-03-04T01:15:10;101080.66;;;16.77;60.97
22333;BME280;11334;36.986;-121.936;2023-03-04T01:17:37;101080.50;;;16.64;61.24
22333;BME280;11334;36.986;-121.936;2023-03-04T01:20:05;101074.78;;;16.53;61.41
22333;BME280;11334;36.986;-121.936;2023-03-04T01:22:34;101074.88;;;16.45;61.59
22333;BME280;11334;36.986;-121.936;2023-03-04T01:25:01;101074.72;;;16.32;61.95
22333;BME280;11334;36.986;-121.936;2023-03-04T01:27:27;101078.59;;;16.30;62.22
22333;BME280;11334;36.986;-121.936;2023-03-04T01:29:53;101081.91;;;16.17;62.23
22333;BME280;11334;36.986;-121.936;2023-03-04T01:32:19;101071.38;;;16.02;62.57
22333;BME280;11334;36.986;-121.936;2023-03-04T01:34:46;101079.09;;;15.97;63.53
22333;BME280;11334;36.986;-121.936;2023-03-04T01:37:12;101077.06;;;15.84;63.28
22333;BME280;11334;36.986;-121.936;2023-03-04T01:39:39;101102.06;;;15.91;62.14
22333;BME280;11334;36.986;-121.936;2023-03-04T01:42:06;101098.81;;;15.81;62.38
22333;BME280;11334;36.986;-121.936;2023-03-04T01:44:38;101084.50;;;15.75;61.97
22333;BME280;11334;36.986;-121.936;2023-03-04T01:47:04;101071.69;;;15.70;62.06
22333;BME280;11334;36.986;-121.936;2023-03-04T01:49:31;101070.75;;;15.63;62.26
22333;BME280;11334;36.986;-121.936;2023-03-04T01:51:58;101085.81;;;15.56;62.30
22333;BME280;11334;36.986;-121.936;2023-03-04T01:54:24;101088.28;;;15.44;62.89
22333;BME280;11334;36.986;-121.936;2023-03-04T01:56:51;101087.16;;;15.38;62.44
22333;BME280;11334;36.986;-121.936;2023-03-04T01:59:20;101088.22;;;15.29;61.23
22333;BME280;11334;36.986;-121.936;2023-03-04T02:01:55;101106.28;;;15.27;61.17
22333;BME280;11334;36.986;-121.936;2023-03-04T02:04:27;101096.00;;;15.17;61.62
22333;BME280;11334;36.986;-121.936;2023-03-04T02:06:55;101102.22;;;15.09;61.63
22333;BME280;11334;36.986;-121.936;2023-03-04T02:09:22;101092.06;;;15.05;62.28
22333;BME280;11334;36.986;-121.936;2023-03-04T02:11:50;101093.88;;;15.04;61.79
22333;BME280;11334;36.986;-121.936;2023-03-04T02:14:17;101096.72;;;15.03;61.95
22333;BME280;11334;36.986;-121.936;2023-03-04T02:16:44;101098.91;;;14.99;61.78
22333;BME280;11334;36.986;-121.936;2023-03-04T02:22:05;101108.59;;;14.70;63.98
22333;BME280;11334;36.986;-121.936;2023-03-04T02:24:56;101110.28;;;14.63;64.44
22333;BME280;11334;36.986;-121.936;2023-03-04T02:27:24;101099.81;;;14.54;64.91
22333;BME280;11334;36.986;-121.936;2023-03-04T02:29:51;101107.50;;;14.49;64.85
22333;BME280;11334;36.986;-121.936;2023-03-04T02:32:17;101122.16;;;14.45;65.32
22333;BME280;11334;36.986;-121.936;2023-03-04T02:34:48;101120.88;;;14.41;65.51
22333;BME280;11334;36.986;-121.936;2023-03-04T02:37:16;101125.88;;;14.36;65.75
22333;BME280;11334;36.986;-121.936;2023-03-04T02:39:44;101134.41;;;14.32;65.59
22333;BME280;11334;36.986;-121.936;2023-03-04T02:42:11;101131.25;;;14.28;66.24
22333;BME280;11334;36.986;-121.936;2023-03-04T02:44:40;101126.22;;;14.25;66.41
22333;BME280;11334;36.986;-121.936;2023-03-04T02:47:10;101120.59;;;14.21;67.60
22333;BME280;11334;36.986;-121.936;2023-03-04T02:49:38;101122.94;;;14.16;67.63
22333;BME280;11334;36.986;-121.936;2023-03-04T02:52:08;101106.50;;;14.04;67.73
22333;BME280;11334;36.986;-121.936;2023-03-04T02:54:36;101132.28;;;14.12;68.19
22333;BME280;11334;36.986;-121.936;2023-03-04T02:57:05;101143.91;;;14.11;68.34
22333;BME280;11334;36.986;-121.936;2023-03-04T02:59:32;101130.63;;;14.03;68.73
22333;BME280;11334;36.986;-121.936;2023-03-04T03:01:58;101130.13;;;13.99;69.16
22333;BME280;11334;36.986;-121.936;2023-03-04T03:04:25;101137.94;;;13.93;69.37
22333;BME280;11334;36.986;-121.936;2023-03-04T03:06:51;101118.31;;;13.78;69.92
22333;BME280;11334;36.986;-121.936;2023-03-04T03:09:19;101129.63;;;13.80;70.29
22333;BME280;11334;36.986;-121.936;2023-03-04T03:11:45;101135.47;;;13.84;70.30
22333;BME280;11334;36.986;-121.936;2023-03-04T03:14:11;101134.59;;;13.83;70.94
22333;BME280;11334;36.986;-121.936;2023-03-04T03:16:37;101128.13;;;13.78;70.88
22333;BME280;11334;36.986;-121.936;2023-03-04T03:19:04;101135.97;;;13.79;71.14
22333;BME280;11334;36.986;-121.936;2023-03-04T03:21:30;101139.81;;;13.69;71.13
22333;BME280;11334;36.986;-121.936;2023-03-04T03:23:57;101148.09;;;13.66;70.66
22333;BME280;11334;36.986;-121.936;2023-03-04T03:26:23;101142.97;;;13.57;71.56
22333;BME280;11334;36.986;-121.936;2023-03-04T03:28:49;101146.25;;;13.51;71.97
22333;BME280;11334;36.986;-121.936;2023-03-04T03:31:15;101151.09;;;13.47;72.17
22333;BME280;11334;36.986;-121.936;2023-03-04T03:33:42;101150.25;;;13.39;71.90
22333;BME280;11334;36.986;-121.936;2023-03-04T03:36:08;101149.41;;;13.30;72.47
22333;BME280;11334;36.986;-121.936;2023-03-04T03:38:34;101141.41;;;13.15;72.84
22333;BME280;11334;36.986;-121.936;2023-03-04T03:41:00;101140.75;;;13.13;73.48
22333;BME280;11334;36.986;-121.936;2023-03-04T03:43:27;101144.56;;;13.10;73.21
22333;BME280;11334;36.986;-121.936;2023-03-04T03:45:53;101146.06;;;13.13;73.00
22333;BME280;11334;36.986;-121.936;2023-03-04T03:48:19;101135.56;;;13.03;73.63
22333;BME280;11334;36.986;-121.936;2023-03-04T03:50:45;101143.53;;;13.03;73.39
22333;BME280;11334;36.986;-121.936;2023-03-04T03:53:12;101150.84;;;13.01;73.65
22333;BME280;11334;36.986;-121.936;2023-03-04T03:55:38;101160.16;;;12.97;73.74
22333;BME280;11334;36.986;-121.936;2023-03-04T03:58:04;101163.28;;;12.85;74.51
22333;BME280;11334;36.986;-121.936;2023-03-04T04:00:31;101178.06;;;12.88;73.97
22333;BME280;11334;36.986;-121.936;2023-03-04T04:02:59;101182.84;;;12.84;74.47
22333;BME280;11334;36.986;-121.936;2023-03-04T04:05:26;101182.50;;;12.79;75.19
22333;BME280;11334;36.986;-121.936;2023-03-04T04:07:52;101163.94;;;12.62;75.33
22333;BME280;11334;36.986;-121.936;2023-03-04T04:10:19;101165.63;;;12.63;75.31
22333;BME280;11334;36.986;-121.936;2023-03-04T04:12:46;101170.44;;;12.67;75.83
22333;BME280;11334;36.986;-121.936;2023-03-04T04:15:12;101178.13;;;12.70;75.83
22333;BME280;11334;36.986;-121.936;2023-03-04T04:17:39;101174.94;;;12.67;75.97
22333;BME280;11334;36.986;-121.936;2023-03-04T04:20:06;101178.97;;;12.71;75.46
22333;BME280;11334;36.986;-121.936;2023-03-04T04:22:33;101190.06;;;12.66;76.20
22333;BME280;11334;36.986;-121.936;2023-03-04T04:24:59;101188.66;;;12.55;76.56
22333;BME280;11334;36.986;-121.936;2023-03-04T04:27:25;101192.47;;;12.52;76.33
22333;BME280;11334;36.986;-121.936;2023-03-04T04:29:51;101186.50;;;12.50;76.81
22333;BME280;11334;36.986;-121.936;2023-03-04T04:32:18;101177.84;;;12.48;76.68
22333;BME280;11334;36.986;-121.936;2023-03-04T04:34:44;101176.84;;;12.49;76.19
22333;BME280;11334;36.986;-121.936;2023-03-04T04:37:10;101167.69;;;12.44;76.28
22333;BME280;11334;36.986;-121.936;2023-03-04T04:39:36;101160.88;;;12.41;76.27
22333;BME280;11334;36.986;-121.936;2023-03-04T04:42:03;101154.53;;;12.34;76.03
22333;BME280;11334;36.986;-121.936;2023-03-04T04:44:29;101157.78;;;12.21;76.49
22333;BME280;11334;36.986;-121.936;2023-03-04T04:46:55;101155.00;;;12.05;77.34
22333;BME280;11334;36.986;-121.936;2023-03-04T04:49:21;101151.66;;;12.03;77.18
22333;BME280;11334;36.986;-121.936;2023-03-04T04:51:48;101143.50;;;11.97;76.95
22333;BME280;11334;36.986;-121.936;2023-03-04T04:54:14;101135.16;;;11.92;77.61
22333;BME280;11334;36.986;-121.936;2023-03-04T04:56:40;101132.84;;;11.89;76.68
22333;BME280;11334;36.986;-121.936;2023-03-04T04:59:07;101135.16;;;11.92;76.03
22333;BME280;11334;36.986;-121.936;2023-03-04T05:01:34;101134.63;;;11.88;76.08
22333;BME280;11334;36.986;-121.936;2023-03-04T05:04:00;101143.44;;;11.89;76.55
22333;BME280;11334;36.986;-121.936;2023-03-04T05:06:26;101136.72;;;11.77;76.72
22333;BME280;11334;36.986;-121.936;2023-03-04T05:08:53;101134.97;;;11.68;76.75
22333;BME280;11334;36.986;-121.936;2023-03-04T05:11:19;101133.53;;;11.56;78.19
22333;BME280;11334;36.986;-121.936;2023-03-04T05:13:46;101126.56;;;11.38;77.71
22333;BME280;11334;36.986;-121.936;2023-03-04T05:16:14;101152.34;;;11.63;77.46
22333;BME280;11334;36.986;-121.936;2023-03-04T05:18:40;101134.09;;;11.60;77.38
22333;BME280;11334;36.986;-121.936;2023-03-04T05:21:07;101140.44;;;11.32;78.39
22333;BME280;11334;36.986;-121.936;2023-03-04T05:23:37;101143.41;;;11.29;78.63
22333;BME280;11334;36.986;-121.936;2023-03-04T05:26:05;101136.59;;;11.27;78.83
22333;BME280;11334;36.986;-121.936;2023-03-04T05:28:32;101144.84;;;11.41;77.61
22333;BME280;11334;36.986;-121.936;2023-03-04T05:30:58;101137.19;;;11.38;77.44
22333;BME280;11334;36.986;-121.936;2023-03-04T05:33:26;101126.75;;;11.19;78.59
22333;BME280;11334;36.986;-121.936;2023-03-04T05:35:52;101138.31;;;11.18;78.77
22333;BME280;11334;36.986;-121.936;2023-03-04T05:38:20;101142.28;;;11.14;78.25
22333;BME280;11334;36.986;-121.936;2023-03-04T05:40:47;101110.97;;;11.01;77.50
22333;BME280;11334;36.986;-121.936;2023-03-04T05:43:14;101136.09;;;11.14;77.85
22333;BME280;11334;36.986;-121.936;2023-03-04T05:45:41;101131.13;;;11.11;77.95
22333;BME280;11334;36.986;-121.936;2023-03-04T05:48:07;101133.06;;;11.09;78.31
22333;BME280;11334;36.986;-121.936;2023-03-04T05:50:34;101134.44;;;11.13;78.12
22333;BME280;11334;36.986;-121.936;2023-03-04T05:53:00;101144.59;;;11.00;77.74
22333;BME280;11334;36.986;-121.936;2023-03-04T05:55:27;101147.25;;;11.00;78.52
22333;BME280;11334;36.986;-121.936;2023-03-04T05:57:55;101155.34;;;10.99;78.60
22333;BME280;11334;36.986;-121.936;2023-03-04T06:00:22;101145.19;;;10.94;78.41
22333;BME280;11334;36.986;-121.936;2023-03-04T06:02:48;101158.69;;;11.01;78.71
22333;BME280;11334;36.986;-121.936;2023-03-04T06:05:15;101149.50;;;10.95;79.46
22333;BME280;11334;36.986;-121.936;2023-03-04T06:07:42;101157.16;;;10.98;79.32
22333;BME280;11334;36.986;-121.936;2023-03-04T06:10:11;101149.34;;;10.97;79.64
22333;BME280;11334;36.986;-121.936;2023-03-04T06:12:37;101156.53;;;10.87;80.43
22333;BME280;11334;36.986;-121.936;2023-03-04T06:15:03;101152.53;;;10.83;80.93
22333;BME280;11334;36.986;-121.936;2023-03-04T06:17:31;101158.66;;;10.83;80.93
22333;BME280;11334;36.986;-121.936;2023-03-04T06:19:57;101145.84;;;10.79;81.30
22333;BME280;11334;36.986;-121.936;2023-03-04T06:22:23;101152.03;;;10.70;81.33
22333;BME280;11334;36.986;-121.936;2023-03-04T06:24:49;101167.63;;;10.73;81.09
22333;BME280;11334;36.986;-121.936;2023-03-04T06:27:16;101164.00;;;10.74;81.02
22333;BME280;11334;36.986;-121.936;2023-03-04T06:29:42;101164.56;;;10.77;80.52
22333;BME280;11334;36.986;-121.936;2023-03-04T06:32:08;101132.97;;;10.57;80.25
22333;BME280;11334;36.986;-121.936;2023-03-04T06:34:34;101138.41;;;10.65;81.44
22333;BME280;11334;36.986;-121.936;2023-03-04T06:37:01;101130.44;;;10.65;81.40
22333;BME280;11334;36.986;-121.936;2023-03-04T06:39:27;101115.78;;;10.71;81.11
22333;BME280;11334;36.986;-121.936;2023-03-04T06:41:53;101103.97;;;10.65;81.20
22333;BME280;11334;36.986;-121.936;2023-03-04T06:44:20;101105.75;;;10.65;81.33
22333;BME280;11334;36.986;-121.936;2023-03-04T06:46:46;101097.53;;;10.68;81.22
22333;BME280;11334;36.986;-121.936;2023-03-04T06:49:12;101097.56;;;10.58;81.26
22333;BME280;11334;36.986;-121.936;2023-03-04T06:51:38;101099.53;;;10.56;82.08
22333;BME280;11334;36.986;-121.936;2023-03-04T06:54:04;101097.22;;;10.44;82.46
22333;BME280;11334;36.986;-121.936;2023-03-04T06:56:31;101094.28;;;10.47;82.67
22333;BME280;11334;36.986;-121.936;2023-03-04T06:58:57;101086.63;;;10.44;82.65
22333;BME280;11334;36.986;-121.936;2023-03-04T07:01:25;101090.50;;;10.49;82.64
22333;BME280;11334;36.986;-121.936;2023-03-04T07:03:55;101087.06;;;10.40;82.84
22333;BME280;11334;36.986;-121.936;2023-03-04T07:06:25;101067.97;;;10.45;82.85
22333;BME280;11334;36.986;-121.936;2023-03-04T07:08:51;101077.03;;;10.43;82.65
22333;BME280;11334;36.986;-121.936;2023-03-04T07:11:19;101072.88;;;10.41;83.10
22333;BME280;11334;36.986;-121.936;2023-03-04T07:13:47;101070.22;;;10.41;82.87
22333;BME280;11334;36.986;-121.936;2023-03-04T07:16:16;101070.75;;;10.44;83.06
22333;BME280;11334;36.986;-121.936;2023-03-04T07:18:43;101063.06;;;10.50;82.58
22333;BME280;11334;36.986;-121.936;2023-03-04T07:21:11;101072.41;;;10.45;82.63
22333;BME280;11334;36.986;-121.936;2023-03-04T07:23:39;101053.81;;;10.28;83.13
22333;BME280;11334;36.986;-121.936;2023-03-04T07:26:05;101088.19;;;10.37;83.05
22333;BME280;11334;36.986;-121.936;2023-03-04T07:28:32;101083.47;;;10.41;83.29
22333;BME280;11334;36.986;-121.936;2023-03-04T07:31:22;101093.50;;;10.37;83.08
22333;BME280;11334;36.986;-121.936;2023-03-04T07:33:49;101091.16;;;10.34;83.54
22333;BME280;11334;36.986;-121.936;2023-03-04T07:36:15;101084.84;;;10.35;83.91
22333;BME280;11334;36.986;-121.936;2023-03-04T07:38:46;101088.84;;;10.22;84.58
22333;BME280;11334;36.986;-121.936;2023-03-04T07:41:13;101081.19;;;10.19;85.02
22333;BME280;11334;36.986;-121.936;2023-03-04T07:43:40;101063.09;;;10.14;85.03
22333;BME280;11334;36.986;-121.936;2023-03-04T07:46:07;101066.53;;;10.24;85.17
22333;BME280;11334;36.986;-121.936;2023-03-04T07:48:33;101063.34;;;10.21;84.65
22333;BME280;11334;36.986;-121.936;2023-03-04T07:51:13;101069.88;;;10.26;84.69
22333;BME280;11334;36.986;-121.936;2023-03-04T07:53:43;101068.88;;;10.27;84.50
22333;BME280;11334;36.986;-121.936;2023-03-04T07:56:13;101055.13;;;10.24;84.39
22333;BME280;11334;36.986;-121.936;2023-03-04T07:58:40;101046.88;;;10.27;84.34
22333;BME280;11334;36.986;-121.936;2023-03-04T08:01:17;101026.72;;;10.16;84.32
22333;BME280;11334;36.986;-121.936;2023-03-04T08:03:45;101045.47;;;10.23;84.76
22333;BME280;11334;36.986;-121.936;2023-03-04T08:06:13;101052.16;;;10.27;84.39
22333;BME280;11334;36.986;-121.936;2023-03-04T08:08:39;101054.28;;;10.23;84.35
22333;BME280;11334;36.986;-121.936;2023-03-04T08:11:10;101042.75;;;10.15;85.51
22333;BME280;11334;36.986;-121.936;2023-03-04T08:13:37;101034.66;;;10.16;85.84
22333;BME280;11334;36.986;-121.936;2023-03-04T08:16:04;101046.09;;;10.17;85.61
22333;BME280;11334;36.986;-121.936;2023-03-04T08:18:30;101046.38;;;10.14;85.72
22333;BME280;11334;36.986;-121.936;2023-03-04T08:20:57;101040.91;;;10.15;85.38
22333;BME280;11334;36.986;-121.936;2023-03-04T08:23:23;101048.19;;;10.13;85.68
22333;BME280;11334;36.986;-121.936;2023-03-04T08:25:49;101051.72;;;10.05;86.27
22333;BME280;11334;36.986;-121.936;2023-03-04T08:28:16;101037.78;;;10.03;85.76
22333;BME280;11334;36.986;-121.936;2023-03-04T08:30:42;101053.97;;;10.00;86.51
22333;BME280;11334;36.986;-121.936;2023-03-04T08:33:09;101059.53;;;10.06;85.99
22333;BME280;11334;36.986;-121.936;2023-03-04T08:35:37;101053.22;;;10.07;86.25
22333;BME280;11334;36.986;-121.936;2023-03-04T08:38:04;101052.84;;;10.02;86.21
22333;BME280;11334;36.986;-121.936;2023-03-04T08:40:31;101033.25;;;9.86;86.63
22333;BME280;11334;36.986;-121.936;2023-03-04T08:42:58;101053.66;;;10.03;86.35
22333;BME280;11334;36.986;-121.936;2023-03-04T08:45:24;101050.88;;;10.04;85.90
22333;BME280;11334;36.986;-121.936;2023-03-04T08:47:50;101046.72;;;10.02;85.99
22333;BME280;11334;36.986;-121.936;2023-03-04T08:50:17;101046.19;;;9.98;85.78
22333;BME280;11334;36.986;-121.936;2023-03-04T08:52:43;101044.38;;;9.99;86.05
22333;BME280;11334;36.986;-121.936;2023-03-04T08:55:09;101048.13;;;9.96;85.84
22333;BME280;11334;36.986;-121.936;2023-03-04T08:57:36;101047.44;;;9.85;86.11
22333;BME280;11334;36.986;-121.936;2023-03-04T09:00:03;101048.28;;;9.85;86.30
22333;BME280;11334;36.986;-121.936;2023-03-04T09:02:29;101049.56;;;9.81;86.60
22333;BME280;11334;36.986;-121.936;2023-03-04T09:04:56;101051.09;;;9.84;86.01
22333;BME280;11334;36.986;-121.936;2023-03-04T09:07:22;101042.97;;;9.85;85.73
22333;BME280;11334;36.986;-121.936;2023-03-04T09:09:48;101043.66;;;9.87;85.89
22333;BME280;11334;36.986;-121.936;2023-03-04T09:12:15;101035.03;;;9.85;85.66
22333;BME280;11334;36.986;-121.936;2023-03-04T09:14:41;101033.69;;;9.81;85.37
22333;BME280;11334;36.986;-121.936;2023-03-04T09:17:07;101033.13;;;9.78;85.60
22333;BME280;11334;36.986;-121.936;2023-03-04T09:19:34;101037.88;;;9.75;86.20
22333;BME280;11334;36.986;-121.936;2023-03-04T09:22:00;101035.53;;;9.72;85.37
22333;BME280;11334;36.986;-121.936;2023-03-04T09:24:27;101041.34;;;9.75;86.11
22333;BME280;11334;36.986;-121.936;2023-03-04T09:26:54;101023.16;;;9.63;86.32
22333;BME280;11334;36.986;-121.936;2023-03-04T09:29:21;101008.28;;;9.62;85.82
22333;BME280;11334;36.986;-121.936;2023-03-04T09:31:47;101018.25;;;9.68;86.04
22333;BME280;11334;36.986;-121.936;2023-03-04T09:34:14;101025.06;;;9.70;86.57
22333;BME280;11334;36.986;-121.936;2023-03-04T09:36:40;101022.03;;;9.65;86.57
22333;BME280;11334;36.986;-121.936;2023-03-04T09:39:06;101026.59;;;9.73;86.17
22333;BME280;11334;36.986;-121.936;2023-03-04T09:41:39;101014.91;;;9.66;86.66
22333;BME280;11334;36.986;-121.936;2023-03-04T09:46:56;101008.09;;;9.63;86.88
22333;BME280;11334;36.986;-121.936;2023-03-04T09:49:24;101002.28;;;9.60;87.03
22333;BME280;11334;36.986;-121.936;2023-03-04T09:51:56;101014.78;;;9.67;86.69
22333;BME280;11334;36.986;-121.936;2023-03-04T09:54:36;101002.41;;;9.68;87.08
22333;BME280;11334;36.986;-121.936;2023-03-04T10:03:23;100976.63;;;9.70;87.59
22333;BME280;11334;36.986;-121.936;2023-03-04T10:05:23;100971.94;;;9.64;87.88
22333;BME280;11334;36.986;-121.936;2023-03-04T10:10:54;100976.38;;;9.63;87.82
22333;BME280;11334;36.986;-121.936;2023-03-04T10:16:22;100957.13;;;9.71;88.20
22333;BME280;11334;36.986;-121.936;2023-03-04T10:21:44;100941.81;;;9.74;88.14
22333;BME280;11334;36.986;-121.936;2023-03-04T10:24:16;100950.88;;;9.72;89.02
22333;BME280;11334;36.986;-121.936;2023-03-04T10:26:46;100958.22;;;9.77;88.75
22333;BME280;11334;36.986;-121.936;2023-03-04T10:29:18;100962.63;;;9.86;87.88
22333;BME280;11334;36.986;-121.936;2023-03-04T10:31:46;100943.13;;;9.87;87.41
22333;BME280;11334;36.986;-121.936;2023-03-04T10:34:17;100938.56;;;9.89;87.97
22333;BME280;11334;36.986;-121.936;2023-03-04T10:36:54;100934.91;;;9.90;88.19
22333;BME280;11334;36.986;-121.936;2023-03-04T10:41:57;100942.81;;;10.00;87.72
22333;BME280;11334;36.986;-121.936;2023-03-04T10:44:24;100945.41;;;10.09;87.23
22333;BME280;11334;36.986;-121.936;2023-03-04T10:46:53;100945.63;;;10.15;87.68
22333;BME280;11334;36.986;-121.936;2023-03-04T10:49:20;100937.28;;;10.10;87.88
22333;BME280;11334;36.986;-121.936;2023-03-04T10:52:11;100937.22;;;10.03;88.38
22333;BME280;11334;36.986;-121.936;2023-03-04T10:54:45;100924.28;;;10.00;88.58
22333;BME280;11334;36.986;-121.936;2023-03-04T10:57:22;100941.19;;;10.16;88.16
22333;BME280;11334;36.986;-121.936;2023-03-04T10:59:57;100948.22;;;10.25;88.06
22333;BME280;11334;36.986;-121.936;2023-03-04T11:02:30;100939.13;;;10.27;87.88
22333;BME280;11334;36.986;-121.936;2023-03-04T11:07:47;100933.00;;;10.27;87.89
22333;BME280;11334;36.986;-121.936;2023-03-04T11:10:22;100930.38;;;10.27;87.76
22333;BME280;11334;36.986;-121.936;2023-03-04T11:12:58;100930.38;;;10.27;87.38
22333;BME280;11334;36.986;-121.936;2023-03-04T11:15:27;100923.94;;;10.29;87.27
22333;BME280;11334;36.986;-121.936;2023-03-04T11:18:01;100920.09;;;10.24;87.27
22333;BME280;11334;36.986;-121.936;2023-03-04T11:20:32;100911.53;;;10.30;87.56
22333;BME280;11334;36.986;-121.936;2023-03-04T11:23:13;100915.84;;;10.31;87.18
22333;BME280;11334;36.986;-121.936;2023-03-04T11:25:51;100912.91;;;10.34;86.77
22333;BME280;11334;36.986;-121.936;2023-03-04T11:31:55;100923.41;;;10.43;85.72
22333;BME280;11334;36.986;-121.936;2023-03-04T11:34:31;100935.22;;;10.48;85.07
22333;BME280;11334;36.986;-121.936;2023-03-04T11:39:37;100920.47;;;10.46;82.98
22333;BME280;11334;36.986;-121.936;2023-03-04T11:44:54;100910.47;;;10.40;83.45
22333;BME280;11334;36.986;-121.936;2023-03-04T11:47:31;100917.06;;;10.36;83.55
22333;BME280;11334;36.986;-121.936;2023-03-04T12:01:01;100915.47;;;10.43;81.09
22333;BME280;11334;36.986;-121.936;2023-03-04T12:12:03;100899.50;;;10.35;80.21
22333;BME280;11334;36.986;-121.936;2023-03-04T12:15:01;100913.88;;;10.33;80.17
22333;BME280;11334;36.986;-121.936;2023-03-04T12:35:02;100950.50;;;10.54;78.34
22333;BME280;11334;36.986;-121.936;2023-03-04T12:43:07;100940.22;;;10.51;76.69
22333;BME280;11334;36.986;-121.936;2023-03-04T12:53:54;100928.34;;;10.38;77.67
22333;BME280;11334;36.986;-121.936;2023-03-04T12:56:26;100925.97;;;10.35;77.65
22333;BME280;11334;36.986;-121.936;2023-03-04T12:58:55;100920.22;;;10.40;77.12
22333;BME280;11334;36.986;-121.936;2023-03-04T13:04:29;100917.75;;;10.38;76.52
22333;BME280;11334;36.986;-121.936;2023-03-04T13:09:50;100932.94;;;10.36;75.93
22333;BME280;11334;36.986;-121.936;2023-03-04T13:12:23;100937.50;;;10.43;76.02
22333;BME280;11334;36.986;-121.936;2023-03-04T13:17:38;100919.78;;;10.27;77.08
22333;BME280;11334;36.986;-121.936;2023-03-04T13:23:26;100924.06;;;10.28;75.91
22333;BME280;11334;36.986;-121.936;2023-03-04T13:28:33;100921.91;;;10.23;77.02
22333;BME280;11334;36.986;-121.936;2023-03-04T13:31:13;100919.44;;;10.12;77.40
22333;BME280;11334;36.986;-121.936;2023-03-04T13:33:52;100944.50;;;10.18;77.41
22333;BME280;11334;36.986;-121.936;2023-03-04T13:36:34;100942.91;;;10.25;76.84
22333;BME280;11334;36.986;-121.936;2023-03-04T13:39:23;100940.13;;;10.26;75.25
22333;BME280;11334;36.986;-121.936;2023-03-04T13:41:51;100929.34;;;10.10;75.56
22333;BME280;11334;36.986;-121.936;2023-03-04T13:46:56;100928.47;;;10.19;75.63
22333;BME280;11334;36.986;-121.936;2023-03-04T13:49:23;100936.41;;;10.19;76.20
22333;BME280;11334;36.986;-121.936;2023-03-04T13:51:50;100933.16;;;10.25;74.75
22333;BME280;11334;36.986;-121.936;2023-03-04T13:54:32;100943.59;;;10.27;74.62
22333;BME280;11334;36.986;-121.936;2023-03-04T13:57:14;100938.31;;;10.27;74.34
22333;BME280;11334;36.986;-121.936;2023-03-04T13:59:48;100937.09;;;10.21;74.63
22333;BME280;11334;36.986;-121.936;2023-03-04T14:02:20;100945.34;;;10.18;74.99
22333;BME280;11334;36.986;-121.936;2023-03-04T14:07:26;100943.84;;;10.16;74.39
22333;BME280;11334;36.986;-121.936;2023-03-04T14:09:58;100946.31;;;10.17;73.90
22333;BME280;11334;36.986;-121.936;2023-03-04T14:12:27;100927.25;;;10.14;74.38